sensor_id;sensor_type;location;lat;lon;timestamp;temperature;humidity
62555;DHT22;48610;52.144;8.624;2022-09-09T00:02:23;15.80;99.90
62555;DHT22;48610;52.144;8.624;2022-09-09T00:05:29;15.90;99.90
62555;DHT22;48610;52.144;8.624;2022-09-09T00:19:22;15.70;99.90
62555;DHT22;48610;52.144;8.624;2022-09-09T00:22:25;15.60;99.90
62555;DHT22;48610;52.144;8.624;2022-09-09T00:25:46;15.50;99.90
62555;DHT22;48610;52.144;8.624;2022-09-09T00:32:12;14.80;99.90
62555;DHT22;48610;52.144;8.624;2022-09-09T00:35:37;14.80;99.90
62555;DHT22;48610;52.144;8.624;2022-09-09T00:38:45;14.90;99.90
62555;DHT22;48610;52.144;8.624;2022-09-09T00:42:14;14.90;99.90
62555;DHT22;48610;52.144;8.624;2022-09-09T00:48:16;15.00;99.90
62555;DHT22;48610;52.144;8.624;2022-09-09T00:51:44;15.00;99.90
62555;DHT22;48610;52.144;8.624;2022-09-09T00:58:10;15.40;99.90
62555;DHT22;48610;52.144;8.624;2022-09-09T01:01:12;15.50;99.90
62555;DHT22;48610;52.144;8.624;2022-09-09T01:04:18;15.60;99.90
62555;DHT22;48610;52.144;8.624;2022-09-09T01:07:23;15.70;99.90
62555;DHT22;48610;52.144;8.624;2022-09-09T01:10:44;15.80;99.90
62555;DHT22;48610;52.144;8.624;2022-09-09T01:13:58;15.80;99.90
62555;DHT22;48610;52.144;8.624;2022-09-09T01:17:20;15.80;99.90
62555;DHT22;48610;52.144;8.624;2022-09-09T01:23:30;15.90;99.90
62555;DHT22;48610;52.144;8.624;2022-09-09T01:26:44;16.00;99.90
62555;DHT22;48610;52.144;8.624;2022-09-09T01:29:45;15.90;99.90
62555;DHT22;48610;52.144;8.624;2022-09-09T01:32:48;15.90;99.90
62555;DHT22;48610;52.144;8.624;2022-09-09T01:36:00;15.90;99.90
62555;DHT22;48610;52.144;8.624;2022-09-09T01:39:03;15.80;99.90
62555;DHT22;48610;52.144;8.624;2022-09-09T01:42:06;15.80;99.90
62555;DHT22;48610;52.144;8.624;2022-09-09T01:45:08;15.80;99.90
62555;DHT22;48610;52.144;8.624;2022-09-09T01:48:09;15.70;99.90
62555;DHT22;48610;52.144;8.624;2022-09-09T01:51:10;15.60;99.90
62555;DHT22;48610;52.144;8.624;2022-09-09T01:54:11;15.60;99.90
62555;DHT22;48610;52.144;8.624;2022-09-09T01:57:23;15.60;99.90
62555;DHT22;48610;52.144;8.624;2022-09-09T02:00:25;15.80;99.90
62555;DHT22;48610;52.144;8.624;2022-09-09T02:03:28;15.90;99.90
62555;DHT22;48610;52.144;8.624;2022-09-09T02:09:32;15.70;99.90
62555;DHT22;48610;52.144;8.624;2022-09-09T02:12:33;15.40;99.90
62555;DHT22;48610;52.144;8.624;2022-09-09T02:18:50;15.30;99.90
62555;DHT22;48610;52.144;8.624;2022-09-09T02:21:54;15.40;99.90
62555;DHT22;48610;52.144;8.624;2022-09-09T02:24:57;15.60;99.90
62555;DHT22;48610;52.144;8.624;2022-09-09T02:27:59;15.80;99.90
62555;DHT22;48610;52.144;8.624;2022-09-09T02:31:01;15.90;99.90
62555;DHT22;48610;52.144;8.624;2022-09-09T02:34:03;15.80;99.90
62555;DHT22;48610;52.144;8.624;2022-09-09T02:37:08;15.80;99.90
62555;DHT22;48610;52.144;8.624;2022-09-09T02:40:12;15.90;99.90
62555;DHT22;48610;52.144;8.624;2022-09-09T02:43:14;15.80;99.90
62555;DHT22;48610;52.144;8.624;2022-09-09T02:55:55;15.80;99.90
62555;DHT22;48610;52.144;8.624;2022-09-09T02:58:58;15.80;99.90
62555;DHT22;48610;52.144;8.624;2022-09-09T03:01:59;15.80;99.90
62555;DHT22;48610;52.144;8.624;2022-09-09T03:05:00;15.70;99.90
62555;DHT22;48610;52.144;8.624;2022-09-09T03:08:01;15.60;99.90
62555;DHT22;48610;52.144;8.624;2022-09-09T03:11:02;15.40;99.90
62555;DHT22;48610;52.144;8.624;2022-09-09T03:14:03;15.40;99.90
62555;DHT22;48610;52.144;8.624;2022-09-09T03:17:05;15.20;99.90
62555;DHT22;48610;52.144;8.624;2022-09-09T03:20:07;15.20;99.90
62555;DHT22;48610;52.144;8.624;2022-09-09T03:23:08;15.20;99.90
62555;DHT22;48610;52.144;8.624;2022-09-09T03:26:09;15.30;99.90
62555;DHT22;48610;52.144;8.624;2022-09-09T03:29:10;15.40;99.90
62555;DHT22;48610;52.144;8.624;2022-09-09T03:32:13;15.50;99.90
62555;DHT22;48610;52.144;8.624;2022-09-09T03:35:14;15.60;99.90
62555;DHT22;48610;52.144;8.624;2022-09-09T03:38:15;15.60;99.90
62555;DHT22;48610;52.144;8.624;2022-09-09T03:41:16;15.50;99.90
62555;DHT22;48610;52.144;8.624;2022-09-09T03:44:17;15.60;99.90
62555;DHT22;48610;52.144;8.624;2022-09-09T03:47:18;15.50;99.90
62555;DHT22;48610;52.144;8.624;2022-09-09T03:50:19;15.60;99.90
62555;DHT22;48610;52.144;8.624;2022-09-09T03:53:22;15.60;99.90
62555;DHT22;48610;52.144;8.624;2022-09-09T03:56:22;15.70;99.90
62555;DHT22;48610;52.144;8.624;2022-09-09T03:59:23;15.70;99.90
62555;DHT22;48610;52.144;8.624;2022-09-09T04:02:23;15.70;99.90
62555;DHT22;48610;52.144;8.624;2022-09-09T04:05:24;15.80;99.90
62555;DHT22;48610;52.144;8.624;2022-09-09T04:08:25;15.80;99.90
62555;DHT22;48610;52.144;8.624;2022-09-09T04:11:26;15.80;99.90
62555;DHT22;48610;52.144;8.624;2022-09-09T04:14:27;15.90;99.90
62555;DHT22;48610;52.144;8.624;2022-09-09T04:17:29;15.80;99.90
62555;DHT22;48610;52.144;8.624;2022-09-09T04:20:29;15.80;99.90
62555;DHT22;48610;52.144;8.624;2022-09-09T04:23:30;15.70;99.90
62555;DHT22;48610;52.144;8.624;2022-09-09T04:26:31;15.70;99.90
62555;DHT22;48610;52.144;8.624;2022-09-09T04:29:32;15.70;99.90
62555;DHT22;48610;52.144;8.624;2022-09-09T04:32:33;15.60;99.90
62555;DHT22;48610;52.144;8.624;2022-09-09T04:35:34;15.70;99.90
62555;DHT22;48610;52.144;8.624;2022-09-09T04:38:34;15.60;99.90
62555;DHT22;48610;52.144;8.624;2022-09-09T04:41:35;15.60;99.90
62555;DHT22;48610;52.144;8.624;2022-09-09T04:44:35;15.70;99.90
62555;DHT22;48610;52.144;8.624;2022-09-09T04:47:37;15.80;99.90
62555;DHT22;48610;52.144;8.624;2022-09-09T04:50:37;15.90;99.90
62555;DHT22;48610;52.144;8.624;2022-09-09T04:53:38;16.00;99.90
62555;DHT22;48610;52.144;8.624;2022-09-09T04:56:40;16.00;99.90
62555;DHT22;48610;52.144;8.624;2022-09-09T04:59:42;15.90;99.90
62555;DHT22;48610;52.144;8.624;2022-09-09T05:02:43;15.70;99.90
62555;DHT22;48610;52.144;8.624;2022-09-09T05:05:43;15.60;99.90
62555;DHT22;48610;52.144;8.624;2022-09-09T05:08:45;15.80;99.90
62555;DHT22;48610;52.144;8.624;2022-09-09T05:11:45;15.80;99.90
62555;DHT22;48610;52.144;8.624;2022-09-09T05:14:46;15.90;99.90
62555;DHT22;48610;52.144;8.624;2022-09-09T05:17:47;15.90;99.90
62555;DHT22;48610;52.144;8.624;2022-09-09T05:20:49;15.90;99.90
62555;DHT22;48610;52.144;8.624;2022-09-09T05:23:51;15.90;99.90
62555;DHT22;48610;52.144;8.624;2022-09-09T05:26:52;15.80;99.90
62555;DHT22;48610;52.144;8.624;2022-09-09T05:29:52;15.80;99.90
62555;DHT22;48610;52.144;8.624;2022-09-09T05:32:56;15.90;99.90
62555;DHT22;48610;52.144;8.624;2022-09-09T05:36:16;15.90;99.90
62555;DHT22;48610;52.144;8.624;2022-09-09T05:39:17;16.00;99.90
62555;DHT22;48610;52.144;8.624;2022-09-09T05:42:18;16.00;99.90
62555;DHT22;48610;52.144;8.624;2022-09-09T05:45:19;16.00;99.90
62555;DHT22;48610;52.144;8.624;2022-09-09T05:48:20;16.00;99.90
62555;DHT22;48610;52.144;8.624;2022-09-09T05:51:22;15.90;99.90
62555;DHT22;48610;52.144;8.624;2022-09-09T05:54:24;15.90;99.90
62555;DHT22;48610;52.144;8.624;2022-09-09T05:57:25;16.00;99.90
62555;DHT22;48610;52.144;8.624;2022-09-09T06:00:26;16.10;99.90
62555;DHT22;48610;52.144;8.624;2022-09-09T06:03:27;16.20;99.90
62555;DHT22;48610;52.144;8.624;2022-09-09T06:06:35;16.30;99.90
62555;DHT22;48610;52.144;8.624;2022-09-09T06:09:37;16.40;99.90
62555;DHT22;48610;52.144;8.624;2022-09-09T06:12:37;16.40;99.90
62555;DHT22;48610;52.144;8.624;2022-09-09T06:15:39;16.50;99.90
62555;DHT22;48610;52.144;8.624;2022-09-09T06:18:41;16.70;99.90
62555;DHT22;48610;52.144;8.624;2022-09-09T06:21:42;16.60;99.90
62555;DHT22;48610;52.144;8.624;2022-09-09T06:24:44;16.70;99.90
62555;DHT22;48610;52.144;8.624;2022-09-09T06:27:48;16.70;99.90
62555;DHT22;48610;52.144;8.624;2022-09-09T06:31:00;17.00;99.90
62555;DHT22;48610;52.144;8.624;2022-09-09T06:34:02;17.10;99.90
62555;DHT22;48610;52.144;8.624;2022-09-09T06:37:04;17.20;99.90
62555;DHT22;48610;52.144;8.624;2022-09-09T06:40:06;17.10;99.90
62555;DHT22;48610;52.144;8.624;2022-09-09T06:43:06;17.00;99.90
62555;DHT22;48610;52.144;8.624;2022-09-09T06:46:15;17.00;99.90
62555;DHT22;48610;52.144;8.624;2022-09-09T06:49:16;16.90;99.90
62555;DHT22;48610;52.144;8.624;2022-09-09T06:52:17;17.20;99.90
62555;DHT22;48610;52.144;8.624;2022-09-09T06:55:18;17.30;99.90
62555;DHT22;48610;52.144;8.624;2022-09-09T06:58:20;17.50;99.90
62555;DHT22;48610;52.144;8.624;2022-09-09T07:01:27;17.70;99.90
62555;DHT22;48610;52.144;8.624;2022-09-09T07:04:28;17.90;99.90
62555;DHT22;48610;52.144;8.624;2022-09-09T07:07:29;18.00;99.90
62555;DHT22;48610;52.144;8.624;2022-09-09T07:10:31;17.90;99.90
62555;DHT22;48610;52.144;8.624;2022-09-09T07:13:32;18.00;99.90
62555;DHT22;48610;52.144;8.624;2022-09-09T07:16:33;18.10;99.90
62555;DHT22;48610;52.144;8.624;2022-09-09T07:19:33;18.20;99.90
62555;DHT22;48610;52.144;8.624;2022-09-09T07:22:35;17.90;99.90
62555;DHT22;48610;52.144;8.624;2022-09-09T07:25:36;17.90;99.90
62555;DHT22;48610;52.144;8.624;2022-09-09T07:28:37;17.90;99.90
62555;DHT22;48610;52.144;8.624;2022-09-09T07:31:39;17.90;99.90
62555;DHT22;48610;52.144;8.624;2022-09-09T07:34:40;17.80;99.90
62555;DHT22;48610;52.144;8.624;2022-09-09T07:37:41;17.90;99.90
62555;DHT22;48610;52.144;8.624;2022-09-09T07:40:42;18.00;99.90
62555;DHT22;48610;52.144;8.624;2022-09-09T07:43:44;18.10;99.90
62555;DHT22;48610;52.144;8.624;2022-09-09T07:46:46;18.10;99.90
62555;DHT22;48610;52.144;8.624;2022-09-09T07:49:47;18.20;99.90
62555;DHT22;48610;52.144;8.624;2022-09-09T07:52:53;18.40;99.90
62555;DHT22;48610;52.144;8.624;2022-09-09T07:55:54;18.40;99.90
62555;DHT22;48610;52.144;8.624;2022-09-09T07:58:56;18.30;99.90
62555;DHT22;48610;52.144;8.624;2022-09-09T08:01:58;18.50;99.90
62555;DHT22;48610;52.144;8.624;2022-09-09T08:04:58;18.40;99.90
62555;DHT22;48610;52.144;8.624;2022-09-09T08:07:59;18.50;99.90
62555;DHT22;48610;52.144;8.624;2022-09-09T08:11:06;18.60;99.90
62555;DHT22;48610;52.144;8.624;2022-09-09T08:14:08;18.60;99.90
62555;DHT22;48610;52.144;8.624;2022-09-09T08:17:09;18.60;99.90
62555;DHT22;48610;52.144;8.624;2022-09-09T08:20:10;18.50;99.90
62555;DHT22;48610;52.144;8.624;2022-09-09T08:23:11;18.60;99.90
62555;DHT22;48610;52.144;8.624;2022-09-09T08:26:16;18.50;99.90
62555;DHT22;48610;52.144;8.624;2022-09-09T08:29:18;18.80;99.90
62555;DHT22;48610;52.144;8.624;2022-09-09T08:32:18;18.80;99.90
62555;DHT22;48610;52.144;8.624;2022-09-09T08:35:19;19.00;99.90
62555;DHT22;48610;52.144;8.624;2022-09-09T08:38:20;19.00;99.90
62555;DHT22;48610;52.144;8.624;2022-09-09T08:51:13;19.40;99.90
62555;DHT22;48610;52.144;8.624;2022-09-09T08:54:14;19.40;99.90
62555;DHT22;48610;52.144;8.624;2022-09-09T08:57:20;19.60;99.90
62555;DHT22;48610;52.144;8.624;2022-09-09T09:00:22;19.60;99.90
62555;DHT22;48610;52.144;8.624;2022-09-09T09:03:57;19.70;99.90
62555;DHT22;48610;52.144;8.624;2022-09-09T09:13:55;19.40;99.90
62555;DHT22;48610;52.144;8.624;2022-09-09T09:17:10;19.30;99.90
62555;DHT22;48610;52.144;8.624;2022-09-09T09:20:22;19.50;99.90
62555;DHT22;48610;52.144;8.624;2022-09-09T09:23:25;19.40;99.90
62555;DHT22;48610;52.144;8.624;2022-09-09T09:26:34;19.30;99.90
62555;DHT22;48610;52.144;8.624;2022-09-09T09:29:35;19.40;99.90
62555;DHT22;48610;52.144;8.624;2022-09-09T09:32:36;19.60;99.90
62555;DHT22;48610;52.144;8.624;2022-09-09T09:35:39;19.70;99.90
62555;DHT22;48610;52.144;8.624;2022-09-09T09:38:39;19.50;99.90
62555;DHT22;48610;52.144;8.624;2022-09-09T09:41:41;19.10;99.90
62555;DHT22;48610;52.144;8.624;2022-09-09T09:44:43;18.60;99.90
62555;DHT22;48610;52.144;8.624;2022-09-09T09:47:44;18.30;99.90
62555;DHT22;48610;52.144;8.624;2022-09-09T09:50:53;18.20;99.90
62555;DHT22;48610;52.144;8.624;2022-09-09T09:54:17;18.30;99.90
62555;DHT22;48610;52.144;8.624;2022-09-09T09:57:26;18.60;99.90
62555;DHT22;48610;52.144;8.624;2022-09-09T10:00:30;19.20;99.90
62555;DHT22;48610;52.144;8.624;2022-09-09T10:03:35;18.80;99.90
62555;DHT22;48610;52.144;8.624;2022-09-09T10:06:38;19.20;99.90
62555;DHT22;48610;52.144;8.624;2022-09-09T10:09:40;19.20;99.90
62555;DHT22;48610;52.144;8.624;2022-09-09T10:13:04;18.90;99.90
62555;DHT22;48610;52.144;8.624;2022-09-09T10:19:59;18.50;99.90
62555;DHT22;48610;52.144;8.624;2022-09-09T10:23:07;18.30;99.90
62555;DHT22;48610;52.144;8.624;2022-09-09T10:29:40;18.20;99.90
62555;DHT22;48610;52.144;8.624;2022-09-09T10:33:04;18.60;99.90
62555;DHT22;48610;52.144;8.624;2022-09-09T10:36:17;19.30;99.90
62555;DHT22;48610;52.144;8.624;2022-09-09T10:39:38;20.30;99.90
62555;DHT22;48610;52.144;8.624;2022-09-09T10:42:41;21.00;99.90
62555;DHT22;48610;52.144;8.624;2022-09-09T10:49:33;21.20;99.30
62555;DHT22;48610;52.144;8.624;2022-09-09T10:56:16;20.10;99.40
62555;DHT22;48610;52.144;8.624;2022-09-09T10:59:26;20.60;98.70
62555;DHT22;48610;52.144;8.624;2022-09-09T11:02:31;20.40;99.60
62555;DHT22;48610;52.144;8.624;2022-09-09T11:08:37;20.50;97.20
62555;DHT22;48610;52.144;8.624;2022-09-09T11:11:54;20.20;98.60
62555;DHT22;48610;52.144;8.624;2022-09-09T11:15:08;20.30;99.10
62555;DHT22;48610;52.144;8.624;2022-09-09T11:18:19;20.20;98.10
62555;DHT22;48610;52.144;8.624;2022-09-09T11:21:25;19.90;98.50
62555;DHT22;48610;52.144;8.624;2022-09-09T11:24:41;20.00;99.90
62555;DHT22;48610;52.144;8.624;2022-09-09T11:34:40;21.90;95.00
62555;DHT22;48610;52.144;8.624;2022-09-09T11:41:02;22.30;93.40
62555;DHT22;48610;52.144;8.624;2022-09-09T11:44:12;22.80;95.00
62555;DHT22;48610;52.144;8.624;2022-09-09T11:47:27;22.10;93.30
62555;DHT22;48610;52.144;8.624;2022-09-09T11:50:34;21.90;94.10
62555;DHT22;48610;52.144;8.624;2022-09-09T11:53:47;21.40;95.40
62555;DHT22;48610;52.144;8.624;2022-09-09T11:56:49;21.10;94.40
62555;DHT22;48610;52.144;8.624;2022-09-09T11:59:53;21.50;94.50
62555;DHT22;48610;52.144;8.624;2022-09-09T12:02:53;21.90;93.80
62555;DHT22;48610;52.144;8.624;2022-09-09T12:05:56;21.90;94.60
62555;DHT22;48610;52.144;8.624;2022-09-09T12:09:12;21.60;94.30
62555;DHT22;48610;52.144;8.624;2022-09-09T12:12:24;21.60;94.30
62555;DHT22;48610;52.144;8.624;2022-09-09T12:15:28;21.30;95.60
62555;DHT22;48610;52.144;8.624;2022-09-09T12:18:35;21.10;95.70
62555;DHT22;48610;52.144;8.624;2022-09-09T12:21:54;21.20;94.20
62555;DHT22;48610;52.144;8.624;2022-09-09T12:31:47;23.10;92.30
62555;DHT22;48610;52.144;8.624;2022-09-09T12:35:11;22.90;92.00
62555;DHT22;48610;52.144;8.624;2022-09-09T12:38:38;22.70;91.80
62555;DHT22;48610;52.144;8.624;2022-09-09T12:41:39;22.60;91.80
62555;DHT22;48610;52.144;8.624;2022-09-09T12:44:54;22.40;90.90
62555;DHT22;48610;52.144;8.624;2022-09-09T12:48:21;22.50;89.50
62555;DHT22;48610;52.144;8.624;2022-09-09T12:51:30;22.80;90.30
62555;DHT22;48610;52.144;8.624;2022-09-09T12:54:35;23.50;88.90
62555;DHT22;48610;52.144;8.624;2022-09-09T12:57:38;23.40;86.90
62555;DHT22;48610;52.144;8.624;2022-09-09T13:00:49;23.30;89.30
62555;DHT22;48610;52.144;8.624;2022-09-09T13:03:52;23.20;87.20
62555;DHT22;48610;52.144;8.624;2022-09-09T13:07:06;23.50;88.20
62555;DHT22;48610;52.144;8.624;2022-09-09T13:10:11;23.50;88.50
62555;DHT22;48610;52.144;8.624;2022-09-09T13:13:17;23.30;88.60
62555;DHT22;48610;52.144;8.624;2022-09-09T13:16:23;22.90;88.60
62555;DHT22;48610;52.144;8.624;2022-09-09T13:19:26;22.20;90.10
62555;DHT22;48610;52.144;8.624;2022-09-09T13:25:33;22.10;92.00
62555;DHT22;48610;52.144;8.624;2022-09-09T13:28:35;22.00;92.00
62555;DHT22;48610;52.144;8.624;2022-09-09T13:31:36;22.10;92.10
62555;DHT22;48610;52.144;8.624;2022-09-09T13:34:37;21.70;92.90
62555;DHT22;48610;52.144;8.624;2022-09-09T13:37:39;21.50;94.00
62555;DHT22;48610;52.144;8.624;2022-09-09T13:40:55;21.40;93.60
62555;DHT22;48610;52.144;8.624;2022-09-09T13:43:58;21.80;93.60
62555;DHT22;48610;52.144;8.624;2022-09-09T13:50:25;22.70;93.40
62555;DHT22;48610;52.144;8.624;2022-09-09T13:53:26;22.50;92.30
62555;DHT22;48610;52.144;8.624;2022-09-09T13:56:27;22.70;92.60
62555;DHT22;48610;52.144;8.624;2022-09-09T13:59:28;22.50;91.50
62555;DHT22;48610;52.144;8.624;2022-09-09T14:02:29;22.40;91.90
62555;DHT22;48610;52.144;8.624;2022-09-09T14:05:32;22.20;90.80
62555;DHT22;48610;52.144;8.624;2022-09-09T14:08:34;21.90;91.30
62555;DHT22;48610;52.144;8.624;2022-09-09T14:11:37;22.10;90.10
62555;DHT22;48610;52.144;8.624;2022-09-09T14:14:38;22.50;90.60
62555;DHT22;48610;52.144;8.624;2022-09-09T14:17:39;22.80;87.10
62555;DHT22;48610;52.144;8.624;2022-09-09T14:20:40;22.60;86.90
62555;DHT22;48610;52.144;8.624;2022-09-09T14:23:40;22.80;85.80
62555;DHT22;48610;52.144;8.624;2022-09-09T14:26:41;22.80;89.00
62555;DHT22;48610;52.144;8.624;2022-09-09T14:29:42;22.50;85.00
62555;DHT22;48610;52.144;8.624;2022-09-09T14:32:44;22.50;88.00
62555;DHT22;48610;52.144;8.624;2022-09-09T14:35:45;22.70;86.30
62555;DHT22;48610;52.144;8.624;2022-09-09T14:38:46;22.60;85.60
62555;DHT22;48610;52.144;8.624;2022-09-09T14:41:46;22.80;85.90
62555;DHT22;48610;52.144;8.624;2022-09-09T14:44:47;22.30;87.80
62555;DHT22;48610;52.144;8.624;2022-09-09T14:47:49;21.90;88.00
62555;DHT22;48610;52.144;8.624;2022-09-09T14:50:49;21.80;89.90
62555;DHT22;48610;52.144;8.624;2022-09-09T14:53:55;21.80;89.30
62555;DHT22;48610;52.144;8.624;2022-09-09T14:56:57;21.70;89.30
62555;DHT22;48610;52.144;8.624;2022-09-09T14:59:58;21.60;89.80
62555;DHT22;48610;52.144;8.624;2022-09-09T15:02:59;21.60;90.10
62555;DHT22;48610;52.144;8.624;2022-09-09T15:06:08;21.60;90.60
62555;DHT22;48610;52.144;8.624;2022-09-09T15:09:09;21.60;90.60
62555;DHT22;48610;52.144;8.624;2022-09-09T15:12:10;21.70;90.70
62555;DHT22;48610;52.144;8.624;2022-09-09T15:15:11;21.80;90.60
62555;DHT22;48610;52.144;8.624;2022-09-09T15:18:14;21.80;91.00
62555;DHT22;48610;52.144;8.624;2022-09-09T15:21:16;21.60;90.90
62555;DHT22;48610;52.144;8.624;2022-09-09T15:24:19;21.50;91.20
62555;DHT22;48610;52.144;8.624;2022-09-09T15:27:20;21.40;91.40
62555;DHT22;48610;52.144;8.624;2022-09-09T15:30:20;21.60;91.60
62555;DHT22;48610;52.144;8.624;2022-09-09T15:33:22;21.60;91.70
62555;DHT22;48610;52.144;8.624;2022-09-09T15:36:25;21.70;91.80
62555;DHT22;48610;52.144;8.624;2022-09-09T15:39:27;21.60;92.40
62555;DHT22;48610;52.144;8.624;2022-09-09T15:42:27;21.70;92.20
62555;DHT22;48610;52.144;8.624;2022-09-09T15:45:28;21.60;92.40
62555;DHT22;48610;52.144;8.624;2022-09-09T15:48:31;21.40;92.40
62555;DHT22;48610;52.144;8.624;2022-09-09T15:51:36;21.40;92.40
62555;DHT22;48610;52.144;8.624;2022-09-09T15:54:37;21.50;92.30
62555;DHT22;48610;52.144;8.624;2022-09-09T15:57:41;21.60;92.50
62555;DHT22;48610;52.144;8.624;2022-09-09T16:00:41;21.60;91.30
62555;DHT22;48610;52.144;8.624;2022-09-09T16:03:43;21.40;90.50
62555;DHT22;48610;52.144;8.624;2022-09-09T16:06:46;21.30;90.60
62555;DHT22;48610;52.144;8.624;2022-09-09T16:09:46;21.30;91.00
62555;DHT22;48610;52.144;8.624;2022-09-09T16:12:47;21.30;90.80
62555;DHT22;48610;52.144;8.624;2022-09-09T16:15:54;21.30;90.90
62555;DHT22;48610;52.144;8.624;2022-09-09T16:18:57;21.20;91.60
62555;DHT22;48610;52.144;8.624;2022-09-09T16:21:58;21.00;91.40
62555;DHT22;48610;52.144;8.624;2022-09-09T16:24:59;21.00;91.70
62555;DHT22;48610;52.144;8.624;2022-09-09T16:28:00;21.10;91.40
62555;DHT22;48610;52.144;8.624;2022-09-09T16:31:07;21.10;91.90
62555;DHT22;48610;52.144;8.624;2022-09-09T16:34:09;21.00;92.30
62555;DHT22;48610;52.144;8.624;2022-09-09T16:37:10;20.80;91.50
62555;DHT22;48610;52.144;8.624;2022-09-09T16:40:11;20.80;92.80
62555;DHT22;48610;52.144;8.624;2022-09-09T16:43:12;20.70;92.00
62555;DHT22;48610;52.144;8.624;2022-09-09T16:46:17;20.60;92.60
62555;DHT22;48610;52.144;8.624;2022-09-09T16:49:18;20.50;93.00
62555;DHT22;48610;52.144;8.624;2022-09-09T16:52:19;20.30;93.20
62555;DHT22;48610;52.144;8.624;2022-09-09T16:55:20;20.20;94.40
62555;DHT22;48610;52.144;8.624;2022-09-09T16:58:20;20.20;94.00
62555;DHT22;48610;52.144;8.624;2022-09-09T17:01:22;20.00;94.00
62555;DHT22;48610;52.144;8.624;2022-09-09T17:04:26;19.90;94.40
62555;DHT22;48610;52.144;8.624;2022-09-09T17:07:28;20.00;94.50
62555;DHT22;48610;52.144;8.624;2022-09-09T17:10:28;20.20;94.20
62555;DHT22;48610;52.144;8.624;2022-09-09T17:13:29;20.10;93.80
62555;DHT22;48610;52.144;8.624;2022-09-09T17:16:32;20.00;94.70
62555;DHT22;48610;52.144;8.624;2022-09-09T17:19:34;19.60;95.50
62555;DHT22;48610;52.144;8.624;2022-09-09T17:22:35;19.50;96.20
62555;DHT22;48610;52.144;8.624;2022-09-09T17:25:36;19.40;96.80
62555;DHT22;48610;52.144;8.624;2022-09-09T17:28:38;19.30;97.30
62555;DHT22;48610;52.144;8.624;2022-09-09T17:31:39;19.00;97.90
62555;DHT22;48610;52.144;8.624;2022-09-09T17:34:41;18.90;98.40
62555;DHT22;48610;52.144;8.624;2022-09-09T17:37:41;18.90;98.10
62555;DHT22;48610;52.144;8.624;2022-09-09T17:40:42;18.90;98.70
62555;DHT22;48610;52.144;8.624;2022-09-09T17:43:43;18.80;99.20
62555;DHT22;48610;52.144;8.624;2022-09-09T17:46:44;18.70;98.20
62555;DHT22;48610;52.144;8.624;2022-09-09T17:49:45;18.70;98.30
62555;DHT22;48610;52.144;8.624;2022-09-09T17:52:46;18.70;98.80
62555;DHT22;48610;52.144;8.624;2022-09-09T17:55:47;18.80;99.30
62555;DHT22;48610;52.144;8.624;2022-09-09T17:58:49;18.50;99.70
62555;DHT22;48610;52.144;8.624;2022-09-09T18:01:50;18.50;99.90
62555;DHT22;48610;52.144;8.624;2022-09-09T18:04:50;18.60;99.90
62555;DHT22;48610;52.144;8.624;2022-09-09T18:07:51;18.70;99.90
62555;DHT22;48610;52.144;8.624;2022-09-09T18:10:52;18.70;99.90
62555;DHT22;48610;52.144;8.624;2022-09-09T18:13:57;18.70;99.90
62555;DHT22;48610;52.144;8.624;2022-09-09T18:17:00;18.70;99.90
62555;DHT22;48610;52.144;8.624;2022-09-09T18:20:02;18.50;99.90
62555;DHT22;48610;52.144;8.624;2022-09-09T18:23:03;18.40;99.90
62555;DHT22;48610;52.144;8.624;2022-09-09T18:26:13;18.40;99.90
62555;DHT22;48610;52.144;8.624;2022-09-09T18:29:19;18.40;99.90
62555;DHT22;48610;52.144;8.624;2022-09-09T18:32:20;18.20;99.90
62555;DHT22;48610;52.144;8.624;2022-09-09T18:35:20;18.30;99.90
62555;DHT22;48610;52.144;8.624;2022-09-09T18:38:21;18.20;99.90
62555;DHT22;48610;52.144;8.624;2022-09-09T18:41:31;18.20;99.90
62555;DHT22;48610;52.144;8.624;2022-09-09T18:44:33;18.30;99.90
62555;DHT22;48610;52.144;8.624;2022-09-09T18:47:34;18.00;99.90
62555;DHT22;48610;52.144;8.624;2022-09-09T18:50:34;18.20;99.90
62555;DHT22;48610;52.144;8.624;2022-09-09T18:53:36;18.10;99.90
62555;DHT22;48610;52.144;8.624;2022-09-09T18:56:37;18.20;99.90
62555;DHT22;48610;52.144;8.624;2022-09-09T18:59:38;18.20;99.90
62555;DHT22;48610;52.144;8.624;2022-09-09T19:02:38;18.30;99.90
62555;DHT22;48610;52.144;8.624;2022-09-09T19:05:39;18.40;99.90
62555;DHT22;48610;52.144;8.624;2022-09-09T19:08:41;18.30;99.90
62555;DHT22;48610;52.144;8.624;2022-09-09T19:11:42;18.20;99.90
62555;DHT22;48610;52.144;8.624;2022-09-09T19:14:43;18.20;99.90
62555;DHT22;48610;52.144;8.624;2022-09-09T19:17:44;18.10;99.90
62555;DHT22;48610;52.144;8.624;2022-09-09T19:20:45;18.10;99.90
62555;DHT22;48610;52.144;8.624;2022-09-09T19:23:46;18.10;99.90
62555;DHT22;48610;52.144;8.624;2022-09-09T19:26:50;18.20;99.90
62555;DHT22;48610;52.144;8.624;2022-09-09T19:29:51;18.10;99.90
62555;DHT22;48610;52.144;8.624;2022-09-09T19:32:52;17.90;99.90
62555;DHT22;48610;52.144;8.624;2022-09-09T19:35:57;17.70;99.90
62555;DHT22;48610;52.144;8.624;2022-09-09T19:38:58;17.80;99.90
62555;DHT22;48610;52.144;8.624;2022-09-09T19:41:59;17.80;99.90
62555;DHT22;48610;52.144;8.624;2022-09-09T19:45:01;17.80;99.90
62555;DHT22;48610;52.144;8.624;2022-09-09T19:48:01;17.70;99.90
62555;DHT22;48610;52.144;8.624;2022-09-09T19:51:11;17.60;99.90
62555;DHT22;48610;52.144;8.624;2022-09-09T19:54:12;17.50;99.90
62555;DHT22;48610;52.144;8.624;2022-09-09T19:57:16;17.50;99.90
62555;DHT22;48610;52.144;8.624;2022-09-09T20:00:18;17.50;99.90
62555;DHT22;48610;52.144;8.624;2022-09-09T20:03:19;17.50;99.90
62555;DHT22;48610;52.144;8.624;2022-09-09T20:06:22;17.40;99.90
62555;DHT22;48610;52.144;8.624;2022-09-09T20:09:23;17.40;99.90
62555;DHT22;48610;52.144;8.624;2022-09-09T20:12:26;17.30;99.90
62555;DHT22;48610;52.144;8.624;2022-09-09T20:15:26;17.30;99.90
62555;DHT22;48610;52.144;8.624;2022-09-09T20:18:29;17.30;99.90
62555;DHT22;48610;52.144;8.624;2022-09-09T20:21:34;17.20;99.90
62555;DHT22;48610;52.144;8.624;2022-09-09T20:24:35;17.00;99.90
62555;DHT22;48610;52.144;8.624;2022-09-09T20:27:36;17.10;99.90
62555;DHT22;48610;52.144;8.624;2022-09-09T20:30:36;17.00;99.90
62555;DHT22;48610;52.144;8.624;2022-09-09T20:33:37;17.00;99.90
62555;DHT22;48610;52.144;8.624;2022-09-09T20:36:39;17.00;99.90
62555;DHT22;48610;52.144;8.624;2022-09-09T20:39:40;17.00;99.90
62555;DHT22;48610;52.144;8.624;2022-09-09T20:42:41;17.10;99.90
62555;DHT22;48610;52.144;8.624;2022-09-09T20:45:42;17.00;99.90
62555;DHT22;48610;52.144;8.624;2022-09-09T20:48:47;17.10;99.90
62555;DHT22;48610;52.144;8.624;2022-09-09T20:51:49;17.00;99.90
62555;DHT22;48610;52.144;8.624;2022-09-09T20:54:50;17.00;99.90
62555;DHT22;48610;52.144;8.624;2022-09-09T20:57:51;17.00;99.90